Time;durP1;ratioP1;P1;durP2;ratioP2;P2;SDS_P1;SDS_P2;PMS_P1;PMS_P2;Temp;Humidity;BMP_temperature;BMP_pressure;BME280_temperature;BME280_humidity;BME280_pressure;Samples;Min_cycle;Max_cycle;Signal;HPM_P1;HPM_P2
2023/11/22 00:00:10;;;;;;;6.30;3.88;;;4.10;99.90;;;;;;5069062;28;20099;-55
2023/11/22 00:02:36;;;;;;;7.85;3.78;;;4.10;99.90;;;;;;5069210;28;20028;-55
2023/11/22 00:05:03;;;;;;;7.30;4.20;;;4.10;99.90;;;;;;5069441;28;20036;-55
2023/11/22 00:07:29;;;;;;;5.50;3.35;;;4.10;99.90;;;;;;5068562;28;20020;-55
2023/11/22 00:09:55;;;;;;;8.20;3.88;;;4.00;99.90;;;;;;5067352;28;20079;-55
2023/11/22 00:12:20;;;;;;;5.18;3.53;;;4.00;99.90;;;;;;5068839;28;20043;-54
2023/11/22 00:14:47;;;;;;;6.53;3.63;;;4.10;99.90;;;;;;5069157;28;20024;-54
2023/11/22 00:17:12;;;;;;;5.70;3.70;;;4.10;99.90;;;;;;5068736;28;20024;-56
2023/11/22 00:19:38;;;;;;;5.80;3.83;;;4.10;99.90;;;;;;5068679;28;20367;-54
2023/11/22 00:22:11;;;;;;;6.20;3.92;;;4.10;99.90;;;;;;5068798;28;20024;-55
2023/11/22 00:24:37;;;;;;;7.53;3.70;;;4.10;99.90;;;;;;5068804;28;20627;-54
2023/11/22 00:27:03;;;;;;;6.47;3.92;;;4.00;99.90;;;;;;5067078;28;20339;-55
2023/11/22 00:29:28;;;;;;;8.15;3.72;;;4.00;99.90;;;;;;5068824;28;20154;-54
2023/11/22 00:31:54;;;;;;;7.35;4.40;;;4.00;99.90;;;;;;5068978;28;20025;-54
2023/11/22 00:34:19;;;;;;;7.10;4.22;;;4.10;99.90;;;;;;5069009;28;20032;-55
2023/11/22 00:36:45;;;;;;;6.60;3.83;;;4.00;99.90;;;;;;5068414;28;20028;-54
2023/11/22 00:39:12;;;;;;;5.95;3.83;;;4.10;99.90;;;;;;5070552;28;20028;-54
2023/11/22 00:41:38;;;;;;;6.53;3.78;;;4.10;99.90;;;;;;5070790;28;20512;-54
2023/11/22 00:44:05;;;;;;;6.03;3.53;;;4.10;99.90;;;;;;5071905;28;20021;-54
2023/11/22 00:46:31;;;;;;;8.25;4.10;;;4.20;99.90;;;;;;5070428;28;20048;-54
2023/11/22 00:48:57;;;;;;;6.75;4.22;;;4.10;99.90;;;;;;5072079;28;20021;-54
2023/11/22 00:51:23;;;;;;;6.05;3.55;;;4.10;99.90;;;;;;5072564;28;20358;-56
2023/11/22 00:53:49;;;;;;;6.80;4.07;;;4.10;99.90;;;;;;5072108;28;20103;-54
2023/11/22 00:56:15;;;;;;;8.75;3.85;;;4.10;99.90;;;;;;5071769;28;20028;-55
2023/11/22 00:58:41;;;;;;;8.32;5.07;;;4.10;99.90;;;;;;5071645;28;20580;-54
2023/11/22 01:01:07;;;;;;;6.40;3.83;;;4.10;99.90;;;;;;5071829;28;20055;-55
2023/11/22 01:03:33;;;;;;;8.15;4.07;;;4.10;99.90;;;;;;5071758;28;20024;-55
2023/11/22 01:05:58;;;;;;;6.47;3.65;;;4.10;99.90;;;;;;5071670;28;20104;-55
2023/11/22 01:08:24;;;;;;;9.73;3.60;;;4.10;99.90;;;;;;5071807;28;20037;-55
2023/11/22 01:10:50;;;;;;;5.13;3.67;;;4.10;99.90;;;;;;5071387;28;20462;-55
2023/11/22 01:13:15;;;;;;;6.07;4.05;;;4.00;99.90;;;;;;5071701;28;20078;-55
2023/11/22 01:15:41;;;;;;;8.02;3.40;;;4.00;99.90;;;;;;5071644;28;20085;-55
2023/11/22 01:18:07;;;;;;;7.82;4.05;;;3.90;99.90;;;;;;5071329;28;20075;-55
2023/11/22 01:20:33;;;;;;;5.55;3.65;;;3.90;99.90;;;;;;5071553;28;20517;-55
2023/11/22 01:22:58;;;;;;;8.48;3.67;;;3.90;99.90;;;;;;5071304;28;20025;-55
2023/11/22 01:25:24;;;;;;;7.55;3.50;;;3.80;99.90;;;;;;5071190;28;20658;-55
2023/11/22 01:27:50;;;;;;;7.28;3.55;;;3.70;99.90;;;;;;5071157;28;20401;-55
2023/11/22 01:30:16;;;;;;;10.05;3.40;;;3.60;99.90;;;;;;5071372;28;20029;-54
2023/11/22 01:32:41;;;;;;;6.53;3.70;;;3.60;99.90;;;;;;5071329;28;20091;-54
2023/11/22 01:35:07;;;;;;;9.88;3.85;;;3.60;99.90;;;;;;5071072;28;20440;-54
2023/11/22 01:37:33;;;;;;;6.03;4.15;;;3.50;99.90;;;;;;5070790;28;20512;-54
2023/11/22 01:39:58;;;;;;;5.97;3.88;;;3.50;99.90;;;;;;5070996;28;20516;-54
2023/11/22 01:42:25;;;;;;;9.10;4.70;;;3.50;99.90;;;;;;5069773;28;20025;-55
2023/11/22 01:44:52;;;;;;;9.00;4.07;;;3.40;99.90;;;;;;5069586;28;20164;-55
2023/11/22 01:47:19;;;;;;;7.50;4.10;;;3.30;99.90;;;;;;5069616;28;20028;-54
2023/11/22 01:49:45;;;;;;;7.78;4.10;;;3.40;99.90;;;;;;5070509;28;20048;-54
2023/11/22 01:52:10;;;;;;;5.72;3.97;;;3.30;99.90;;;;;;5069570;28;20067;-54
2023/11/22 01:54:37;;;;;;;8.45;4.40;;;3.30;99.90;;;;;;5070694;28;20344;-54
2023/11/22 01:57:03;;;;;;;9.25;4.55;;;3.30;99.90;;;;;;5070301;28;20021;-54
2023/11/22 01:59:30;;;;;;;5.30;3.58;;;3.20;99.90;;;;;;5070843;28;20028;-55
2023/11/22 02:01:56;;;;;;;13.75;5.15;;;3.20;99.90;;;;;;5070723;28;20025;-54
2023/11/22 02:04:21;;;;;;;5.78;3.85;;;3.10;99.90;;;;;;5070481;28;20035;-54
2023/11/22 02:06:47;;;;;;;10.90;4.68;;;3.10;99.90;;;;;;5070013;28;20107;-55
2023/11/22 02:09:15;;;;;;;7.72;4.25;;;3.00;99.90;;;;;;5070477;28;20023;-55
2023/11/22 02:11:42;;;;;;;9.02;4.10;;;3.00;99.90;;;;;;5068976;28;20448;-55
2023/11/22 02:14:08;;;;;;;9.00;4.03;;;2.90;99.90;;;;;;5070326;28;20025;-55
2023/11/22 02:16:35;;;;;;;6.70;4.10;;;2.80;99.90;;;;;;5069994;28;20025;-55
2023/11/22 02:19:00;;;;;;;8.82;4.45;;;2.80;99.90;;;;;;5068899;28;20490;-55
2023/11/22 02:21:26;;;;;;;7.88;4.07;;;2.90;99.90;;;;;;5070496;28;20029;-54
2023/11/22 02:23:51;;;;;;;7.43;4.35;;;2.80;99.90;;;;;;5070349;28;20149;-55
2023/11/22 02:26:20;;;;;;;8.45;4.10;;;2.80;99.90;;;;;;5069676;28;20104;-54
2023/11/22 02:28:45;;;;;;;10.50;5.05;;;2.70;99.90;;;;;;5070036;28;20025;-54
2023/11/22 02:31:11;;;;;;;6.07;4.30;;;2.70;99.90;;;;;;5068848;28;20031;-55
2023/11/22 02:33:37;;;;;;;7.15;4.50;;;2.70;99.90;;;;;;5070458;28;20024;-54
2023/11/22 02:36:02;;;;;;;7.50;4.50;;;2.70;99.90;;;;;;5070067;28;20271;-54
2023/11/22 02:38:28;;;;;;;8.90;4.78;;;2.60;99.90;;;;;;5068438;28;20058;-54
2023/11/22 02:40:54;;;;;;;8.90;4.75;;;2.60;99.90;;;;;;5069932;28;20025;-55
2023/11/22 02:43:20;;;;;;;7.82;4.25;;;2.60;99.90;;;;;;5069819;28;20027;-54
2023/11/22 02:45:47;;;;;;;6.93;4.10;;;2.50;99.90;;;;;;5069890;28;20012;-54
2023/11/22 02:48:13;;;;;;;6.80;4.45;;;2.50;99.90;;;;;;5069303;28;20028;-54
2023/11/22 02:50:39;;;;;;;6.88;5.15;;;2.50;99.90;;;;;;5069864;28;20473;-55
2023/11/22 02:53:04;;;;;;;8.55;4.38;;;2.50;99.90;;;;;;5069242;28;20028;-54
2023/11/22 02:55:30;;;;;;;8.77;4.82;;;2.50;99.90;;;;;;5069653;28;20056;-54
2023/11/22 02:57:56;;;;;;;8.27;4.70;;;2.40;99.90;;;;;;5069368;28;20025;-55
2023/11/22 03:00:22;;;;;;;8.73;4.60;;;2.40;99.90;;;;;;5068401;28;20535;-55
2023/11/22 03:02:53;;;;;;;7.22;4.43;;;2.40;99.90;;;;;;5068440;28;20436;-55
2023/11/22 03:05:20;;;;;;;8.75;4.97;;;2.40;99.90;;;;;;5069477;28;20016;-55
2023/11/22 03:07:45;;;;;;;10.73;4.53;;;2.30;99.90;;;;;;5067969;28;20102;-55
2023/11/22 03:10:11;;;;;;;7.75;5.03;;;2.40;99.90;;;;;;5067951;28;20470;-54
2023/11/22 03:12:37;;;;;;;9.70;5.32;;;2.40;99.90;;;;;;5051330;28;20535;-55
2023/11/22 03:15:03;;;;;;;9.23;4.65;;;2.30;99.90;;;;;;5069351;28;20042;-55
2023/11/22 03:17:29;;;;;;;8.05;5.10;;;2.30;99.90;;;;;;5068912;28;20108;-55
2023/11/22 03:19:58;;;;;;;10.07;5.20;;;2.30;99.90;;;;;;5069145;28;20036;-55
2023/11/22 03:22:25;;;;;;;9.30;5.28;;;2.30;99.90;;;;;;5069281;28;20031;-54
2023/11/22 03:24:50;;;;;;;9.98;5.45;;;2.30;99.90;;;;;;5069281;28;20385;-54
2023/11/22 03:27:16;;;;;;;7.05;4.28;;;2.20;99.90;;;;;;5068965;28;20050;-53
2023/11/22 03:29:42;;;;;;;9.73;4.40;;;2.20;99.90;;;;;;5067518;28;20054;-53
2023/11/22 03:32:08;;;;;;;7.35;4.95;;;2.20;99.90;;;;;;5069052;28;20033;-54
2023/11/22 03:34:33;;;;;;;7.80;4.10;;;2.20;99.90;;;;;;5068735;28;20031;-55
2023/11/22 03:36:59;;;;;;;8.73;5.07;;;2.30;99.90;;;;;;5068275;28;20389;-53
2023/11/22 03:39:24;;;;;;;7.80;4.22;;;2.20;99.90;;;;;;5067607;28;20025;-53
2023/11/22 03:41:50;;;;;;;10.80;5.15;;;2.20;99.90;;;;;;5069079;28;20491;-55
2023/11/22 03:44:16;;;;;;;6.95;4.22;;;2.20;99.90;;;;;;5069087;28;20025;-53
2023/11/22 03:46:42;;;;;;;9.88;4.97;;;2.20;99.90;;;;;;5068246;28;20035;-53
2023/11/22 03:49:08;;;;;;;8.95;4.70;;;2.20;99.90;;;;;;5069173;28;20099;-53
2023/11/22 03:51:35;;;;;;;10.85;4.75;;;2.10;99.90;;;;;;5069053;28;20021;-53
2023/11/22 03:54:02;;;;;;;8.63;4.50;;;2.10;99.90;;;;;;5068879;28;20528;-53
2023/11/22 03:56:28;;;;;;;8.18;4.43;;;2.10;99.90;;;;;;5068752;28;20079;-53
2023/11/22 03:58:54;;;;;;;8.07;4.78;;;2.00;99.90;;;;;;5067616;28;20052;-52
2023/11/22 04:01:20;;;;;;;11.82;5.25;;;2.00;99.90;;;;;;5068172;28;20031;-52
2023/11/22 04:03:48;;;;;;;8.43;5.10;;;2.00;99.90;;;;;;5068718;28;20059;-55
2023/11/22 04:06:16;;;;;;;11.52;4.68;;;2.00;99.90;;;;;;5068565;28;20105;-54
2023/11/22 04:08:46;;;;;;;8.05;4.15;;;1.90;99.90;;;;;;5068819;28;20033;-54
2023/11/22 04:11:12;;;;;;;9.82;4.80;;;2.00;99.90;;;;;;5068704;28;20029;-53
2023/11/22 04:13:38;;;;;;;8.50;4.75;;;2.00;99.90;;;;;;5070170;28;20032;-54
2023/11/22 04:16:08;;;;;;;7.63;4.40;;;1.90;99.90;;;;;;5072585;28;20032;-55
2023/11/22 04:18:38;;;;;;;7.73;4.03;;;1.90;99.90;;;;;;5071076;28;20040;-54
2023/11/22 04:21:04;;;;;;;6.00;4.03;;;1.90;99.90;;;;;;5072675;28;20021;-54
2023/11/22 04:23:33;;;;;;;10.05;4.30;;;1.90;99.90;;;;;;5072876;28;20056;-55
2023/11/22 04:26:00;;;;;;;11.75;4.28;;;1.80;99.90;;;;;;5072137;28;20021;-53
2023/11/22 04:28:26;;;;;;;7.25;3.75;;;1.80;99.90;;;;;;5072817;28;20547;-53
2023/11/22 04:30:52;;;;;;;9.27;4.03;;;1.80;99.90;;;;;;5072885;28;20355;-53
2023/11/22 04:33:18;;;;;;;7.93;4.68;;;1.70;99.90;;;;;;5072534;28;20025;-53
2023/11/22 04:35:44;;;;;;;10.30;5.05;;;1.70;99.90;;;;;;5072301;28;20051;-53
2023/11/22 04:38:10;;;;;;;6.28;4.07;;;1.70;99.90;;;;;;5071842;28;20021;-53
2023/11/22 04:40:37;;;;;;;7.25;4.45;;;1.70;99.90;;;;;;5072040;28;20028;-54
2023/11/22 04:43:03;;;;;;;7.38;4.40;;;1.70;99.90;;;;;;5072262;28;20092;-54
2023/11/22 04:45:28;;;;;;;5.65;3.90;;;1.70;99.90;;;;;;5071908;28;20265;-54
2023/11/22 04:47:56;;;;;;;9.40;3.90;;;1.70;99.90;;;;;;5071745;28;20020;-54
2023/11/22 04:50:24;;;;;;;6.85;3.75;;;1.70;99.90;;;;;;5072218;28;20470;-54
2023/11/22 04:52:50;;;;;;;9.13;4.18;;;1.70;99.90;;;;;;5070775;28;20028;-54
2023/11/22 04:55:15;;;;;;;10.25;4.25;;;1.70;99.90;;;;;;5071948;28;20096;-54
2023/11/22 04:57:41;;;;;;;7.95;4.63;;;1.70;99.90;;;;;;5070197;28;20112;-52
2023/11/22 05:00:08;;;;;;;7.25;4.70;;;1.70;99.90;;;;;;5070449;28;20024;-52
2023/11/22 05:02:33;;;;;;;8.48;4.90;;;1.70;99.90;;;;;;5072060;28;20052;-52
2023/11/22 05:04:59;;;;;;;19.85;6.43;;;1.60;99.90;;;;;;5072184;28;20476;-52
2023/11/22 05:07:25;;;;;;;6.88;4.22;;;1.60;99.90;;;;;;5071187;28;20021;-52
2023/11/22 05:09:50;;;;;;;7.13;4.10;;;1.60;99.90;;;;;;5070054;28;20032;-52
2023/11/22 05:12:16;;;;;;;6.18;3.53;;;1.60;99.90;;;;;;5071644;28;20402;-53
2023/11/22 05:14:43;;;;;;;9.13;3.88;;;1.60;99.90;;;;;;5071602;28;20021;-52
2023/11/22 05:17:09;;;;;;;7.60;4.60;;;1.60;99.90;;;;;;5070674;28;20021;-52
2023/11/22 05:19:34;;;;;;;7.80;4.28;;;1.60;99.90;;;;;;5070852;28;20070;-54
2023/11/22 05:22:00;;;;;;;7.65;4.82;;;1.60;99.90;;;;;;5070961;28;20035;-52
2023/11/22 05:24:26;;;;;;;6.55;4.10;;;1.60;99.90;;;;;;5070502;28;20024;-54
2023/11/22 05:26:52;;;;;;;5.32;3.65;;;1.50;99.90;;;;;;5070238;28;20027;-54
2023/11/22 05:29:17;;;;;;;9.73;3.97;;;1.50;99.90;;;;;;5069628;28;20028;-53
2023/11/22 05:31:43;;;;;;;5.82;3.85;;;1.50;99.90;;;;;;5070979;28;20029;-53
2023/11/22 05:34:08;;;;;;;7.95;4.53;;;1.40;99.90;;;;;;5071336;28;20032;-53
2023/11/22 05:36:34;;;;;;;9.75;4.75;;;1.40;99.90;;;;;;5071103;28;20032;-53
2023/11/22 05:38:59;;;;;;;6.03;3.95;;;1.40;99.90;;;;;;5071037;28;20036;-53
2023/11/22 05:41:25;;;;;;;5.90;3.80;;;1.40;99.90;;;;;;5071556;28;20665;-54
2023/11/22 05:43:52;;;;;;;6.60;3.47;;;1.40;99.90;;;;;;5069916;28;20074;-52
2023/11/22 05:46:21;;;;;;;6.07;3.95;;;1.30;99.90;;;;;;5070900;28;20359;-53
2023/11/22 05:48:50;;;;;;;6.65;3.85;;;1.30;99.90;;;;;;5069765;28;20025;-52
2023/11/22 05:51:16;;;;;;;6.13;3.95;;;1.30;99.90;;;;;;5071104;28;20048;-54
2023/11/22 05:53:42;;;;;;;6.40;3.90;;;1.30;99.90;;;;;;5103477;28;20028;-53
2023/11/22 05:56:08;;;;;;;7.85;4.03;;;1.30;99.90;;;;;;5070755;28;20082;-54
2023/11/22 05:58:38;;;;;;;8.13;4.75;;;1.20;99.90;;;;;;5070591;28;20492;-54
2023/11/22 06:01:07;;;;;;;7.25;4.00;;;1.20;99.90;;;;;;5070712;28;20029;-54
2023/11/22 06:03:33;;;;;;;7.38;4.03;;;1.20;99.90;;;;;;5070603;28;20095;-54
2023/11/22 06:05:59;;;;;;;9.27;4.18;;;1.30;99.90;;;;;;5070357;28;20108;-54
2023/11/22 06:08:25;;;;;;;7.10;3.50;;;1.20;99.90;;;;;;5070365;28;20452;-54
2023/11/22 06:10:51;;;;;;;8.20;4.50;;;1.20;99.90;;;;;;5070602;28;20036;-54
2023/11/22 06:13:17;;;;;;;9.43;5.53;;;1.10;99.90;;;;;;5070615;28;20021;-54
2023/11/22 06:15:42;;;;;;;7.93;3.97;;;1.10;99.90;;;;;;5070345;28;20535;-54
2023/11/22 06:18:08;;;;;;;7.05;4.07;;;1.10;99.90;;;;;;5069440;28;20039;-56
2023/11/22 06:20:34;;;;;;;6.25;3.90;;;1.10;99.90;;;;;;5069886;28;20347;-55
2023/11/22 06:22:59;;;;;;;10.43;4.28;;;1.00;99.90;;;;;;5068757;28;20017;-53
2023/11/22 06:25:25;;;;;;;7.50;4.22;;;1.10;99.90;;;;;;5070292;28;20025;-53
2023/11/22 06:27:51;;;;;;;9.35;4.40;;;1.00;99.90;;;;;;5069959;28;20029;-54
2023/11/22 06:30:17;;;;;;;6.65;4.07;;;1.00;99.90;;;;;;5070096;28;20024;-57
2023/11/22 06:32:42;;;;;;;6.93;4.00;;;1.00;99.90;;;;;;5068709;28;20027;-53
2023/11/22 06:35:09;;;;;;;12.63;4.30;;;1.00;99.90;;;;;;5068110;28;20154;-52
2023/11/22 06:37:35;;;;;;;6.95;4.25;;;1.00;99.90;;;;;;5069899;28;20029;-52
2023/11/22 06:40:01;;;;;;;6.03;3.30;;;1.00;99.90;;;;;;5069755;28;20521;-52
2023/11/22 06:42:27;;;;;;;8.32;4.03;;;1.00;99.90;;;;;;5069848;28;20032;-52
2023/11/22 06:44:53;;;;;;;7.28;4.47;;;1.00;99.90;;;;;;5070228;28;20017;-51
2023/11/22 06:47:19;;;;;;;9.18;4.88;;;1.00;99.90;;;;;;5069308;28;20047;-53
2023/11/22 06:49:45;;;;;;;11.00;4.97;;;1.10;99.90;;;;;;5069749;28;20049;-55
2023/11/22 06:52:10;;;;;;;8.88;4.72;;;1.00;99.90;;;;;;5069439;28;20041;-54
2023/11/22 06:54:36;;;;;;;7.63;4.00;;;1.00;99.90;;;;;;5068260;28;20032;-54
2023/11/22 06:57:02;;;;;;;7.75;4.25;;;1.00;99.90;;;;;;5069186;28;20028;-53
2023/11/22 06:59:29;;;;;;;7.55;4.90;;;1.00;99.90;;;;;;5069531;28;20027;-55
2023/11/22 07:01:55;;;;;;;10.82;4.70;;;1.00;99.90;;;;;;5069322;28;20075;-55
2023/11/22 07:04:22;;;;;;;7.28;4.35;;;1.00;99.90;;;;;;5069242;28;20389;-54
2023/11/22 07:06:49;;;;;;;8.48;4.30;;;1.00;99.90;;;;;;5069006;28;20020;-54
2023/11/22 07:09:14;;;;;;;10.68;4.97;;;1.00;99.90;;;;;;5069318;28;20085;-54
2023/11/22 07:11:40;;;;;;;6.22;4.28;;;1.00;99.90;;;;;;5068082;28;20119;-55
2023/11/22 07:14:06;;;;;;;7.72;4.80;;;1.00;99.90;;;;;;5069568;28;20273;-54
2023/11/22 07:16:34;;;;;;;6.90;4.03;;;1.10;99.90;;;;;;5068029;28;20032;-53
2023/11/22 07:19:06;;;;;;;9.23;4.57;;;1.10;99.90;;;;;;5069260;28;20434;-54
2023/11/22 07:21:32;;;;;;;7.82;4.57;;;1.10;99.90;;;;;;5069609;28;20113;-55
2023/11/22 07:24:01;;;;;;;8.02;4.07;;;1.20;99.90;;;;;;5069446;28;20506;-53
2023/11/22 07:26:27;;;;;;;10.25;4.95;;;1.20;99.90;;;;;;5068723;28;20074;-53
2023/11/22 07:28:55;;;;;;;11.15;4.22;;;1.20;99.90;;;;;;5069051;28;20029;-52
2023/11/22 07:31:22;;;;;;;8.00;3.53;;;1.20;99.90;;;;;;5069044;28;20029;-53
2023/11/22 07:33:48;;;;;;;8.20;4.88;;;1.20;99.90;;;;;;5069130;28;20020;-53
2023/11/22 07:36:15;;;;;;;7.32;3.67;;;1.30;99.90;;;;;;5068637;28;20029;-52
2023/11/22 07:38:42;;;;;;;6.85;4.25;;;1.40;99.90;;;;;;5069283;28;20020;-54
2023/11/22 07:41:08;;;;;;;7.32;4.47;;;1.40;99.90;;;;;;5069148;28;20017;-53
2023/11/22 07:43:33;;;;;;;7.93;3.95;;;1.40;99.90;;;;;;5068967;28;20035;-54
2023/11/22 07:46:01;;;;;;;8.68;4.43;;;1.50;99.90;;;;;;5067653;28;20561;-54
2023/11/22 07:48:26;;;;;;;5.85;4.03;;;1.50;99.90;;;;;;5069671;28;20558;-54
2023/11/22 07:50:53;;;;;;;5.70;3.65;;;1.50;99.90;;;;;;5072685;28;20028;-53
2023/11/22 07:53:18;;;;;;;7.15;3.85;;;1.50;99.90;;;;;;5072957;28;20031;-53
2023/11/22 07:55:44;;;;;;;7.22;3.65;;;1.60;99.90;;;;;;5072161;28;20474;-54
2023/11/22 07:58:10;;;;;;;8.88;4.88;;;1.60;99.90;;;;;;5070694;28;20086;-54
2023/11/22 08:00:36;;;;;;;10.13;4.95;;;1.60;99.90;;;;;;5071323;28;20440;-54
2023/11/22 08:03:02;;;;;;;10.20;5.00;;;1.60;99.90;;;;;;5070408;28;20386;-53
2023/11/22 08:05:36;;;;;;;12.15;5.68;;;1.60;99.90;;;;;;5071379;28;20025;-54
2023/11/22 08:08:08;;;;;;;9.55;5.85;;;1.70;99.90;;;;;;5072560;28;20516;-53
2023/11/22 08:10:37;;;;;;;11.52;5.40;;;1.70;99.90;;;;;;5071348;28;20497;-56
2023/11/22 08:13:03;;;;;;;8.60;5.28;;;1.80;99.90;;;;;;5072371;28;20094;-54
2023/11/22 08:15:31;;;;;;;7.97;5.05;;;1.80;99.90;;;;;;5072214;28;20016;-54
2023/11/22 08:17:58;;;;;;;13.35;6.60;;;1.90;99.90;;;;;;5070887;28;20371;-54
2023/11/22 08:20:25;;;;;;;10.02;5.00;;;1.90;99.90;;;;;;5072520;28;20016;-54
2023/11/22 08:22:51;;;;;;;10.93;6.28;;;2.00;99.90;;;;;;5072649;28;20110;-54
2023/11/22 08:25:17;;;;;;;10.20;5.60;;;2.10;99.90;;;;;;5072406;28;20025;-54
2023/11/22 08:27:43;;;;;;;12.57;6.57;;;2.10;99.90;;;;;;5071821;28;20025;-54
2023/11/22 08:30:13;;;;;;;9.60;5.80;;;2.10;99.90;;;;;;5072609;28;20029;-54
2023/11/22 08:32:42;;;;;;;10.10;6.00;;;2.20;99.90;;;;;;5070901;28;20036;-54
2023/11/22 08:35:11;;;;;;;10.95;6.35;;;2.30;99.90;;;;;;5072313;28;20641;-54
2023/11/22 08:37:39;;;;;;;10.57;5.35;;;2.30;99.90;;;;;;5071653;28;20051;-54
2023/11/22 08:40:06;;;;;;;8.73;5.75;;;2.40;99.90;;;;;;5071715;28;20522;-54
2023/11/22 08:42:33;;;;;;;9.35;6.30;;;2.50;99.90;;;;;;5071572;28;20032;-54
2023/11/22 08:44:59;;;;;;;11.00;5.65;;;2.60;99.90;;;;;;5070485;28;20012;-54
2023/11/22 08:47:24;;;;;;;11.93;6.28;;;2.70;99.90;;;;;;5071068;28;20013;-54
2023/11/22 08:49:50;;;;;;;13.68;7.47;;;2.80;99.90;;;;;;5067184;28;20103;-54
2023/11/22 08:52:15;;;;;;;11.30;6.25;;;2.80;99.90;;;;;;5069051;28;20048;-54
2023/11/22 08:54:41;;;;;;;12.88;7.50;;;2.80;99.90;;;;;;5070336;28;20039;-54
2023/11/22 08:57:07;;;;;;;15.65;7.28;;;2.90;99.90;;;;;;5077679;28;20032;-54
2023/11/22 08:59:37;;;;;;;14.98;7.75;;;2.90;99.90;;;;;;5069117;28;20032;-54
2023/11/22 09:02:07;;;;;;;11.98;7.32;;;2.90;99.90;;;;;;5071509;28;20034;-54
2023/11/22 09:04:33;;;;;;;11.13;7.10;;;3.00;99.90;;;;;;5071725;28;20500;-54
2023/11/22 09:06:59;;;;;;;13.88;7.32;;;3.00;99.90;;;;;;5069525;28;20029;-55
2023/11/22 09:09:30;;;;;;;12.05;6.55;;;3.00;99.90;;;;;;5065739;28;20024;-55
2023/11/22 09:11:59;;;;;;;10.38;5.88;;;3.10;99.90;;;;;;5065916;28;20082;-55
2023/11/22 09:14:25;;;;;;;11.20;6.88;;;3.20;99.90;;;;;;5071296;28;20021;-55
2023/11/22 09:16:54;;;;;;;12.05;7.25;;;3.20;99.90;;;;;;5069671;28;20512;-55
2023/11/22 09:19:21;;;;;;;12.43;6.43;;;3.20;99.90;;;;;;5067924;28;20500;-54
2023/11/22 09:21:47;;;;;;;13.18;7.60;;;3.30;99.90;;;;;;5071269;28;20029;-54
2023/11/22 09:24:12;;;;;;;11.68;6.75;;;3.50;99.90;;;;;;5071500;28;20482;-54
2023/11/22 09:26:38;;;;;;;15.57;7.43;;;3.40;99.90;;;;;;5069600;28;20017;-54
2023/11/22 09:29:04;;;;;;;10.40;6.72;;;3.60;99.90;;;;;;5071559;28;20051;-54
2023/11/22 09:31:30;;;;;;;13.48;7.03;;;3.50;99.90;;;;;;5071315;28;20059;-54
2023/11/22 09:33:56;;;;;;;11.88;7.45;;;3.50;99.90;;;;;;5071234;28;20592;-55
2023/11/22 09:36:24;;;;;;;41.70;26.23;;;3.60;99.90;;;;;;5071133;28;20701;-52
2023/11/22 09:38:50;;;;;;;113.22;65.47;;;3.60;99.90;;;;;;5070905;28;20536;-54
2023/11/22 09:41:17;;;;;;;17.55;10.75;;;3.70;99.90;;;;;;5071115;28;20027;-54
2023/11/22 09:43:44;;;;;;;14.40;8.13;;;3.70;99.90;;;;;;5069718;28;20146;-54
2023/11/22 09:46:11;;;;;;;15.27;7.32;;;3.80;99.90;;;;;;5070636;28;20021;-55
2023/11/22 09:48:39;;;;;;;12.23;7.25;;;3.80;99.90;;;;;;5069251;28;20082;-54
2023/11/22 09:51:08;;;;;;;13.02;7.60;;;3.90;99.90;;;;;;5070644;28;20036;-54
2023/11/22 09:54:04;;;;;;;13.10;8.02;;;3.90;99.90;;;;;;5069733;28;20055;-54
2023/11/22 09:56:30;;;;;;;14.82;6.97;;;3.90;99.90;;;;;;5070879;28;20025;-54
2023/11/22 09:59:00;;;;;;;11.35;7.55;;;3.80;99.90;;;;;;5070301;28;20035;-55
2023/11/22 10:01:48;;;;;;;11.63;7.63;;;3.90;99.90;;;;;;5068999;28;20021;-55
2023/11/22 10:04:13;;;;;;;13.55;8.02;;;3.90;99.90;;;;;;5069973;28;20036;-55
2023/11/22 10:06:40;;;;;;;12.00;7.00;;;4.00;99.90;;;;;;5070157;28;20043;-54
2023/11/22 10:09:09;;;;;;;12.73;7.60;;;4.10;99.90;;;;;;5070534;28;20102;-55
2023/11/22 10:11:40;;;;;;;12.68;6.88;;;4.00;99.90;;;;;;5070453;28;20032;-55
2023/11/22 10:14:05;;;;;;;14.13;7.75;;;4.00;99.90;;;;;;5070386;28;20494;-55
2023/11/22 10:16:31;;;;;;;12.10;7.28;;;4.10;99.90;;;;;;5070013;28;20040;-55
2023/11/22 10:18:57;;;;;;;11.95;7.25;;;4.00;99.90;;;;;;5073507;28;20026;-55
2023/11/22 10:21:30;;;;;;;13.00;7.47;;;4.00;99.90;;;;;;5070242;28;20378;-54
2023/11/22 10:24:04;;;;;;;11.13;7.05;;;4.00;99.90;;;;;;5067295;28;20135;-55
2023/11/22 10:26:30;;;;;;;11.70;7.15;;;4.10;99.90;;;;;;5075184;28;20048;-55
2023/11/22 10:28:57;;;;;;;13.25;7.50;;;4.10;99.90;;;;;;5069267;28;20027;-55
2023/11/22 10:31:23;;;;;;;12.93;7.57;;;4.20;99.90;;;;;;5068343;28;20496;-55
2023/11/22 10:33:49;;;;;;;13.93;8.35;;;4.30;99.90;;;;;;5099464;28;20020;-55
2023/11/22 10:36:16;;;;;;;14.05;7.75;;;4.30;99.90;;;;;;5065503;28;20032;-54
2023/11/22 10:38:46;;;;;;;10.80;7.03;;;4.40;99.90;;;;;;5067043;28;20087;-55
2023/11/22 10:41:13;;;;;;;10.82;6.97;;;4.50;99.90;;;;;;5066925;28;20096;-55
2023/11/22 10:43:41;;;;;;;15.45;7.57;;;4.70;99.90;;;;;;5067468;28;20020;-54
2023/11/22 10:46:11;;;;;;;14.38;7.75;;;5.00;99.90;;;;;;5067630;28;20025;-55
2023/11/22 10:48:36;;;;;;;13.50;7.25;;;5.10;99.90;;;;;;5064697;28;20474;-54
2023/11/22 10:51:04;;;;;;;13.80;8.23;;;5.40;99.90;;;;;;5063825;28;20028;-55
2023/11/22 10:53:34;;;;;;;13.65;7.35;;;5.60;99.90;;;;;;5061300;28;20502;-54
2023/11/22 10:56:20;;;;;;;13.27;6.93;;;6.10;99.90;;;;;;5068887;28;20027;-55
2023/11/22 10:58:55;;;;;;;9.88;6.65;;;6.60;99.90;;;;;;5066577;28;20041;-55
2023/11/22 11:01:25;;;;;;;9.48;6.88;;;6.80;97.60;;;;;;5066389;28;20021;-55
2023/11/22 11:04:18;;;;;;;9.85;6.95;;;7.10;97.50;;;;;;5068118;28;20077;-54
2023/11/22 11:06:50;;;;;;;11.73;7.20;;;7.00;95.40;;;;;;5067327;28;20024;-55
2023/11/22 11:09:21;;;;;;;13.48;7.38;;;7.20;95.30;;;;;;5082566;28;20080;-55
2023/11/22 11:11:47;;;;;;;10.75;7.05;;;7.40;95.70;;;;;;5067106;28;20177;-54
2023/11/22 11:14:15;;;;;;;10.48;6.65;;;7.40;95.50;;;;;;5067564;28;20035;-54
2023/11/22 11:16:46;;;;;;;11.32;7.00;;;7.30;95.60;;;;;;5067867;28;20039;-55
2023/11/22 11:19:13;;;;;;;12.60;7.88;;;7.20;95.00;;;;;;5064908;28;20032;-54
2023/11/22 11:21:39;;;;;;;12.55;7.68;;;7.10;96.30;;;;;;5069300;28;20020;-55
2023/11/22 11:24:05;;;;;;;9.38;6.75;;;7.40;94.90;;;;;;5068346;28;20027;-54
2023/11/22 11:26:34;;;;;;;9.68;6.70;;;7.70;94.80;;;;;;5068954;28;20028;-56
2023/11/22 11:29:00;;;;;;;11.77;7.50;;;7.90;94.30;;;;;;5068907;28;20099;-54
2023/11/22 11:31:35;;;;;;;14.45;6.82;;;7.80;92.80;;;;;;5068292;28;20115;-54
2023/11/22 11:34:04;;;;;;;10.00;6.75;;;7.50;94.20;;;;;;5069294;28;20485;-55
2023/11/22 11:36:32;;;;;;;12.32;7.20;;;7.50;95.10;;;;;;5067436;28;20025;-55
2023/11/22 11:39:01;;;;;;;10.80;6.63;;;7.40;93.60;;;;;;5068920;28;20351;-54
2023/11/22 11:41:32;;;;;;;12.50;7.13;;;7.50;94.40;;;;;;5069291;28;20052;-54
2023/11/22 11:43:58;;;;;;;13.95;7.55;;;7.80;94.20;;;;;;5069037;28;20020;-55
2023/11/22 11:46:26;;;;;;;11.45;7.80;;;8.30;93.80;;;;;;5068814;28;20028;-56
2023/11/22 11:48:53;;;;;;;11.02;7.07;;;8.60;93.10;;;;;;5062984;28;20029;-56
2023/11/22 11:51:22;;;;;;;10.07;6.65;;;9.00;92.80;;;;;;5065929;28;20032;-54
2023/11/22 11:53:48;;;;;;;10.90;6.90;;;9.10;92.30;;;;;;5068631;28;20116;-54
2023/11/22 11:56:14;;;;;;;10.18;6.40;;;8.60;91.60;;;;;;5069104;28;20197;-55
2023/11/22 11:58:46;;;;;;;11.60;7.70;;;8.20;91.50;;;;;;5066010;28;20037;-54
2023/11/22 12:01:20;;;;;;;9.77;6.47;;;8.00;93.10;;;;;;5066133;28;20404;-54
2023/11/22 12:03:46;;;;;;;11.32;7.93;;;7.80;93.30;;;;;;5069025;28;20056;-55
2023/11/22 12:06:19;;;;;;;10.77;6.13;;;7.40;93.60;;;;;;5069086;28;20056;-54
2023/11/22 12:08:47;;;;;;;9.43;6.35;;;7.00;92.00;;;;;;5065921;28;20032;-54
2023/11/22 12:11:13;;;;;;;8.02;6.28;;;6.60;92.60;;;;;;5068064;28;20025;-54
2023/11/22 12:13:41;;;;;;;8.20;5.47;;;6.30;92.10;;;;;;5066447;28;20092;-54
2023/11/22 12:16:10;;;;;;;10.65;6.40;;;6.20;92.80;;;;;;5061828;28;20017;-52
2023/11/22 12:18:43;;;;;;;10.35;5.32;;;5.70;93.60;;;;;;5068286;28;20083;-54
2023/11/22 12:21:15;;;;;;;10.30;5.80;;;5.50;93.60;;;;;;5069044;28;20021;-54
2023/11/22 12:23:42;;;;;;;9.82;6.05;;;5.60;95.20;;;;;;5067382;28;20098;-53
2023/11/22 12:26:15;;;;;;;11.25;6.57;;;5.60;94.60;;;;;;5068307;28;20431;-54
2023/11/22 12:28:42;;;;;;;9.43;6.35;;;5.20;94.90;;;;;;5068016;28;20060;-54
2023/11/22 12:31:12;;;;;;;11.55;6.72;;;5.20;95.10;;;;;;5068550;28;20021;-54
2023/11/22 12:33:39;;;;;;;11.48;7.30;;;5.20;95.10;;;;;;5068182;28;20119;-52
2023/11/22 12:36:07;;;;;;;9.70;5.85;;;5.10;94.40;;;;;;5070376;28;20043;-52
2023/11/22 12:38:34;;;;;;;10.40;6.88;;;4.70;95.70;;;;;;5071561;28;20031;-54
2023/11/22 12:41:03;;;;;;;14.07;7.25;;;4.80;96.50;;;;;;5071765;28;20015;-53
2023/11/22 12:43:28;;;;;;;11.70;7.13;;;4.70;96.50;;;;;;5072606;28;20255;-52
2023/11/22 12:46:16;;;;;;;9.27;5.50;;;4.90;95.50;;;;;;5072094;28;20103;-52
2023/11/22 12:48:42;;;;;;;9.57;6.28;;;4.80;96.10;;;;;;5071007;28;20035;-53
2023/11/22 12:51:18;;;;;;;12.20;6.28;;;4.80;97.20;;;;;;5071982;28;20020;-51